Historyczne dane pomiarowe

Dodano dane terminowe – wersja testowa.

Dane z okresu 1951-2019

Wersja bazy: 1.34 [2019-03-16, lista zmian], aktualizacja planowana na 2019-04-15

Dane meteo z obszaru Polski uzyskane na podstawie danych udostępnionych przez Instytut Meteorologii i Gospodarki Wodnej – Państwowy Instytut Badawczy.

 

Wybierz Datę:    

       

TemperaturaWilgotnośćZachmurzenieWiatrCiśnienieWidzialnośćZjawiska
 Data    tng td wb rh cc ccl cl cm ch dir g1 g2 mslp ppp      
1995-09-13 00:00:00 11.0--- 10.6 10.898wxwx0wx--1018.0 976.9 0.0---wx
1995-09-13 01:00:00 15.2--- 13.0 13.987wxwx3wx--1017.2 976.7----wx
1995-09-13 02:00:00 14.9--- 12.9 13.788wxwxwx1wx--1017.1 976.5----wx
1995-09-13 03:00:00 14.3--- 12.8 13.491wxwxwx1wx--1016.3 975.7----wx
1995-09-13 04:00:00 14.0--- 12.8 13.393wxwxwx1wx--1016.0 975.4----wx
1995-09-13 05:00:00 13.9--- 12.4 13.090wxwxwxwxwx0wx--1015.8 975.2----wx
1995-09-13 06:00:00 15.8--- 12.6 13.981wxwxwxwxwx2wx--1015.6 975.2 0.0---wx
1995-09-13 07:00:00 17.7--- 13.0 14.974wxwxwxwxwx2wx--1015.6 975.5----wx
1995-09-13 08:00:00 20.1--- 14.1 16.468wxwxwxwxwx3wx--1014.5 974.8----wx
1995-09-13 09:00:00 20.1--- 14.1 16.468wxwxwxwxwx4wx--1014.2 974.5----wx
1995-09-13 10:00:00 21.9--- 14.2 17.162wxwxwxwxwx5wx--1014.0 974.5----wx
1995-09-13 11:00:00 21.6--- 14.4 17.164wxwxwxwx5wx--1013.7 974.2----wx
1995-09-13 12:00:00 21.9--- 15.1 17.665wxwxwxwx5wx--1013.1 973.6 0.0---wx
1995-09-13 13:00:00 21.8--- 13.5 16.759wxwxwxwx4wx--1012.3 972.9----wx
1995-09-13 14:00:00 22.0--- 14.3 17.262wxwxwxwx5wx--1011.7 972.3----wx
1995-09-13 15:00:00 22.7--- 14.4 17.559wxwxwxwx4wx--1010.8 971.5----wx
1995-09-13 16:00:00 21.3--- 14.6 17.166wxwxwxwx4wx--1010.8 971.4----wx
1995-09-13 17:00:00 21.0--- 14.2 16.865wxwxwxwx3wx--1010.6 971.1----wx
1995-09-13 18:00:00 20.5--- 14.2 16.667wxwxwxwx4wx--1010.4 970.9 0.0---wx
1995-09-13 19:00:00 19.9--- 13.9 16.268wxwxwxwx4wx--1010.2 970.6----wx
1995-09-13 20:00:00 19.9--- 13.9 16.268wxwxwx5wx--1010.2 970.6----wx
1995-09-13 21:00:00 18.8--- 14.8 16.377wxwxwx5wx--1009.7 970.0----wx
1995-09-13 22:00:00 19.9--- 13.5 16.067wxwxwx7wx--1009.1 969.5----wx
1995-09-13 23:00:00 20.2--- 13.3 16.065wxwxwx6wx--1008.7 969.2----wx

 

Źródłem pochodzenia danych jest Instytut Meteorologii i Gospodarki Wodnej – Państwowy Instytut Badawczy. Dane Instytutu Meteorologii i Gospodarki Wodnej – Państwowego Instytutu Badawczego zostały przetworzone.

Dane źródłowe można odnaleźć na stronie https://dane.imgw.pl